Time;durP1;ratioP1;P1;durP2;ratioP2;P2;SDS_P1;SDS_P2;PMS_P1;PMS_P2;Temp;Humidity;BMP_temperature;BMP_pressure;BME280_temperature;BME280_humidity;BME280_pressure;Samples;Min_cycle;Max_cycle;Signal;HPM_P1;HPM_P2
2021/09/15 00:01:26;;;;;;;10.27;4.32;;;;;;;;;;5022563;28;20132;-63
2021/09/15 00:03:53;;;;;;;10.50;4.15;;;;;;;;;;5018635;28;20463;-63
2021/09/15 00:06:19;;;;;;;11.38;4.43;;;;;;;;;;5026930;28;20136;-63
2021/09/15 00:08:46;;;;;;;11.80;5.05;;;;;;;;;;5020208;28;20071;-63
2021/09/15 00:11:13;;;;;;;7.57;4.30;;;;;;;;;;5022880;28;20564;-63
2021/09/15 00:13:40;;;;;;;6.72;4.30;;;;;;;;;;5022936;28;20375;-63
2021/09/15 00:16:06;;;;;;;10.52;4.82;;;;;;;;;;5018495;28;20074;-63
2021/09/15 00:18:33;;;;;;;9.52;4.35;;;;;;;;;;5017811;28;20049;-63
2021/09/15 00:20:59;;;;;;;10.48;4.57;;;;;;;;;;5021245;28;20045;-63
2021/09/15 00:23:26;;;;;;;14.30;5.20;;;;;;;;;;5024541;28;20144;-63
2021/09/15 00:25:53;;;;;;;37.93;5.53;;;;;;;;;;5030750;28;20140;-63
2021/09/15 00:28:19;;;;;;;14.15;5.65;;;;;;;;;;5005602;28;20572;-63
2021/09/15 00:30:45;;;;;;;9.63;5.28;;;;;;;;;;5028038;28;20464;-63
2021/09/15 00:33:12;;;;;;;6.75;4.00;;;;;;;;;;5024430;28;20605;-63
2021/09/15 00:35:38;;;;;;;8.88;4.82;;;;;;;;;;5023969;28;20501;-63
2021/09/15 00:38:05;;;;;;;9.18;4.15;;;;;;;;;;5021505;28;20707;-63
2021/09/15 00:40:32;;;;;;;9.18;3.95;;;;;;;;;;5024740;28;20079;-63
2021/09/15 00:42:59;;;;;;;12.27;5.10;;;;;;;;;;5028923;28;20084;-63
2021/09/15 00:45:25;;;;;;;10.10;5.22;;;;;;;;;;5022198;28;20600;-63
2021/09/15 00:47:52;;;;;;;8.30;5.53;;;;;;;;;;5021810;28;20084;-63
2021/09/15 00:50:19;;;;;;;10.77;4.72;;;;;;;;;;5026437;28;20046;-63
2021/09/15 00:52:45;;;;;;;7.97;4.75;;;;;;;;;;5025690;28;20050;-63
2021/09/15 00:55:12;;;;;;;11.23;5.07;;;;;;;;;;5023902;28;20080;-63
2021/09/15 00:57:39;;;;;;;9.68;5.22;;;;;;;;;;5026259;28;20512;-63
2021/09/15 01:00:06;;;;;;;8.60;4.60;;;;;;;;;;5021019;28;20065;-63
2021/09/15 01:02:33;;;;;;;11.35;4.95;;;;;;;;;;5021255;28;20049;-63
2021/09/15 01:05:01;;;;;;;6.53;4.85;;;;;;;;;;5022348;28;20054;-63
2021/09/15 01:07:27;;;;;;;12.93;5.45;;;;;;;;;;5018240;28;20108;-63
2021/09/15 01:09:54;;;;;;;15.57;6.03;;;;;;;;;;5021119;28;20049;-63
2021/09/15 01:12:21;;;;;;;9.02;5.45;;;;;;;;;;5029158;28;20084;-63
2021/09/15 01:14:48;;;;;;;9.52;3.17;;;;;;;;;;5017630;28;20092;-63
2021/09/15 01:17:14;;;;;;;12.23;4.15;;;;;;;;;;5024880;28;20144;-63
2021/09/15 01:19:42;;;;;;;10.40;4.75;;;;;;;;;;5024138;28;20133;-63
2021/09/15 01:22:09;;;;;;;11.88;4.40;;;;;;;;;;5025184;28;20056;-63
2021/09/15 01:24:36;;;;;;;6.95;3.80;;;;;;;;;;5019931;28;20136;-63
2021/09/15 01:27:02;;;;;;;9.25;4.18;;;;;;;;;;5027520;28;20128;-65
2021/09/15 01:29:32;;;;;;;13.80;4.72;;;;;;;;;;5020898;28;20206;-63
2021/09/15 01:32:04;;;;;;;8.68;3.80;;;;;;;;;;5020618;28;20607;-63
2021/09/15 01:34:35;;;;;;;7.60;3.72;;;;;;;;;;5022086;28;20061;-63
2021/09/15 01:37:02;;;;;;;7.70;3.97;;;;;;;;;;5023659;28;20094;-63
2021/09/15 01:39:29;;;;;;;9.25;4.30;;;;;;;;;;5024677;28;20144;-63
2021/09/15 01:41:59;;;;;;;9.38;3.85;;;;;;;;;;5018272;28;20045;-63
2021/09/15 01:44:31;;;;;;;14.52;4.60;;;;;;;;;;5020163;28;20153;-63
2021/09/15 01:47:00;;;;;;;8.40;4.72;;;;;;;;;;5018855;28;20124;-63
2021/09/15 01:49:31;;;;;;;12.48;4.28;;;;;;;;;;5018029;28;20650;-63
2021/09/15 01:51:57;;;;;;;9.15;4.40;;;;;;;;;;5023521;28;20070;-63
2021/09/15 01:54:24;;;;;;;6.75;3.80;;;;;;;;;;5018884;28;20078;-63
2021/09/15 01:56:51;;;;;;;12.38;4.43;;;;;;;;;;5019773;28;20096;-63
2021/09/15 01:59:17;;;;;;;7.03;3.60;;;;;;;;;;5022281;28;20077;-63
2021/09/15 02:01:44;;;;;;;5.32;3.38;;;;;;;;;;5020560;28;20132;-63
2021/09/15 02:04:12;;;;;;;9.05;3.90;;;;;;;;;;5024641;28;20060;-63
2021/09/15 02:06:38;;;;;;;8.97;4.70;;;;;;;;;;5023334;28;20482;-63
2021/09/15 02:09:05;;;;;;;8.18;4.32;;;;;;;;;;5017795;28;20299;-63
2021/09/15 02:11:34;;;;;;;8.15;4.50;;;;;;;;;;5022676;28;20203;-63
2021/09/15 02:14:00;;;;;;;6.25;4.15;;;;;;;;;;5021738;28;20132;-63
2021/09/15 02:16:26;;;;;;;10.90;4.35;;;;;;;;;;5022376;28;20100;-63
2021/09/15 02:18:53;;;;;;;5.57;3.95;;;;;;;;;;5025496;28;20063;-63
2021/09/15 02:21:24;;;;;;;6.22;3.92;;;;;;;;;;5022112;28;20133;-63
2021/09/15 02:23:51;;;;;;;10.88;3.80;;;;;;;;;;5022484;28;20530;-63
2021/09/15 02:26:18;;;;;;;5.15;3.40;;;;;;;;;;5023232;28;20148;-63
2021/09/15 02:28:44;;;;;;;7.22;4.28;;;;;;;;;;5023602;28;20069;-63
2021/09/15 02:31:11;;;;;;;9.98;4.32;;;;;;;;;;5019012;28;20077;-64
2021/09/15 02:33:37;;;;;;;8.52;4.32;;;;;;;;;;5023313;28;20128;-63
2021/09/15 02:36:04;;;;;;;8.10;4.28;;;;;;;;;;5021886;28;20164;-63
2021/09/15 02:38:30;;;;;;;6.15;3.92;;;;;;;;;;5019269;28;20136;-64
2021/09/15 02:40:57;;;;;;;7.70;4.47;;;;;;;;;;5026713;28;20216;-63
2021/09/15 02:43:24;;;;;;;7.05;4.00;;;;;;;;;;5019510;28;20140;-63
2021/09/15 02:45:50;;;;;;;7.18;4.20;;;;;;;;;;5022289;28;20054;-63
2021/09/15 02:48:17;;;;;;;7.25;4.32;;;;;;;;;;5021445;28;20056;-63
2021/09/15 02:50:44;;;;;;;8.38;3.80;;;;;;;;;;5017446;28;20132;-63
2021/09/15 02:53:11;;;;;;;5.43;3.30;;;;;;;;;;5022864;28;20132;-63
2021/09/15 02:55:37;;;;;;;10.05;4.22;;;;;;;;;;5029976;28;20140;-63
2021/09/15 02:58:04;;;;;;;8.05;4.65;;;;;;;;;;5023996;28;20080;-63
2021/09/15 03:00:30;;;;;;;10.10;3.15;;;;;;;;;;5028392;28;20142;-63
2021/09/15 03:02:57;;;;;;;3.97;3.00;;;;;;;;;;5019924;28;20041;-63
2021/09/15 03:05:24;;;;;;;6.78;3.00;;;;;;;;;;5024471;28;20249;-63
2021/09/15 03:07:50;;;;;;;5.40;3.33;;;;;;;;;;5026011;28;20144;-63
2021/09/15 03:10:17;;;;;;;10.32;4.20;;;;;;;;;;5030089;28;20080;-63
2021/09/15 03:12:43;;;;;;;8.02;3.67;;;;;;;;;;5022100;28;20081;-63
2021/09/15 03:15:10;;;;;;;6.13;4.03;;;;;;;;;;5023947;28;20141;-63
2021/09/15 03:17:37;;;;;;;7.63;3.85;;;;;;;;;;5022370;28;20140;-64
2021/09/15 03:20:04;;;;;;;6.75;3.50;;;;;;;;;;5023777;28;20136;-63
2021/09/15 03:22:31;;;;;;;9.40;4.28;;;;;;;;;;5028043;28;20076;-63
2021/09/15 03:24:58;;;;;;;10.43;3.85;;;;;;;;;;5023385;28;20045;-63
2021/09/15 03:27:24;;;;;;;8.93;4.07;;;;;;;;;;5029138;28;20041;-63
2021/09/15 03:29:50;;;;;;;9.70;4.00;;;;;;;;;;5020357;28;20041;-63
2021/09/15 03:32:18;;;;;;;11.98;4.70;;;;;;;;;;5028693;28;20141;-63
2021/09/15 03:34:44;;;;;;;8.20;4.55;;;;;;;;;;5025372;28;20128;-63
2021/09/15 03:37:10;;;;;;;11.77;4.10;;;;;;;;;;5029889;28;20132;-63
2021/09/15 03:39:37;;;;;;;6.53;3.97;;;;;;;;;;5026727;28;20132;-63
2021/09/15 03:42:04;;;;;;;11.25;4.00;;;;;;;;;;5022905;28;20184;-63
2021/09/15 03:44:30;;;;;;;7.63;3.65;;;;;;;;;;5023650;28;20417;-64
2021/09/15 03:46:57;;;;;;;5.43;3.13;;;;;;;;;;5023553;28;20129;-63
2021/09/15 03:49:23;;;;;;;11.57;3.50;;;;;;;;;;5022850;28;20692;-63
2021/09/15 03:51:50;;;;;;;8.82;3.70;;;;;;;;;;5025565;28;20129;-63
2021/09/15 03:54:17;;;;;;;6.60;3.50;;;;;;;;;;5019555;28;20058;-63
2021/09/15 03:56:43;;;;;;;5.47;3.33;;;;;;;;;;5022281;28;20296;-63
2021/09/15 03:59:09;;;;;;;6.78;3.60;;;;;;;;;;5024109;28;20560;-63
2021/09/15 04:01:36;;;;;;;6.30;3.65;;;;;;;;;;5020563;28;20056;-63
2021/09/15 04:04:03;;;;;;;8.57;4.03;;;;;;;;;;5018936;28;20049;-63
2021/09/15 04:06:29;;;;;;;10.70;4.65;;;;;;;;;;5019068;28;20161;-63
2021/09/15 04:08:56;;;;;;;9.57;4.32;;;;;;;;;;5019231;28;20156;-63
2021/09/15 04:11:23;;;;;;;10.32;4.32;;;;;;;;;;5019153;28;20955;-63
2021/09/15 04:13:49;;;;;;;10.10;4.60;;;;;;;;;;5025599;28;20563;-63
2021/09/15 04:16:16;;;;;;;13.82;5.25;;;;;;;;;;5025063;28;20160;-63
2021/09/15 04:18:42;;;;;;;14.73;4.82;;;;;;;;;;5021558;28;20128;-63
2021/09/15 04:21:08;;;;;;;7.75;4.40;;;;;;;;;;5024058;28;20122;-63
2021/09/15 04:23:53;;;;;;;11.43;5.53;;;;;;;;;;5022207;28;20073;-63
2021/09/15 04:31:50;;;;;;;14.15;6.03;;;;;;;;;;5022256;28;20128;-63
2021/09/15 04:34:17;;;;;;;14.90;4.82;;;;;;;;;;5024297;28;20053;-64
2021/09/15 04:36:43;;;;;;;9.70;5.05;;;;;;;;;;5024967;28;20536;-63
2021/09/15 04:39:09;;;;;;;10.95;4.90;;;;;;;;;;5018989;28;20081;-63
2021/09/15 04:41:36;;;;;;;9.95;4.70;;;;;;;;;;5014969;28;20144;-63
2021/09/15 04:44:03;;;;;;;6.80;4.75;;;;;;;;;;5019509;28;20723;-63
2021/09/15 04:46:29;;;;;;;12.43;4.87;;;;;;;;;;5018456;28;20045;-63
2021/09/15 04:48:56;;;;;;;12.55;5.30;;;;;;;;;;5018009;28;20049;-63
2021/09/15 04:51:23;;;;;;;8.48;5.50;;;;;;;;;;5017391;28;20041;-63
2021/09/15 04:53:49;;;;;;;13.48;6.82;;;;;;;;;;5027336;28;20222;-63
2021/09/15 04:56:16;;;;;;;12.73;6.57;;;;;;;;;;5020737;28;20137;-63
2021/09/15 04:58:42;;;;;;;16.38;5.90;;;;;;;;;;5022739;28;20132;-64
2021/09/15 05:01:09;;;;;;;12.90;4.65;;;;;;;;;;5019749;28;20051;-63
2021/09/15 05:03:36;;;;;;;12.63;4.10;;;;;;;;;;5020853;28;20496;-63
2021/09/15 05:06:02;;;;;;;8.82;3.72;;;;;;;;;;5024165;28;20155;-63
2021/09/15 05:08:29;;;;;;;7.00;3.67;;;;;;;;;;5022844;28;20096;-63
2021/09/15 05:10:56;;;;;;;8.35;4.00;;;;;;;;;;5020551;28;20465;-63
2021/09/15 05:13:22;;;;;;;10.15;4.25;;;;;;;;;;5023924;28;20132;-63
2021/09/15 05:15:49;;;;;;;8.68;4.15;;;;;;;;;;5021007;28;20516;-63
2021/09/15 05:18:16;;;;;;;4.95;3.38;;;;;;;;;;5015220;28;20524;-64
2021/09/15 05:20:42;;;;;;;7.18;4.63;;;;;;;;;;5020028;28;20133;-63
2021/09/15 05:23:09;;;;;;;9.20;4.97;;;;;;;;;;5020002;28;20520;-63
2021/09/15 05:25:36;;;;;;;10.77;4.60;;;;;;;;;;5021605;28;20505;-63
2021/09/15 05:28:03;;;;;;;10.20;4.95;;;;;;;;;;5026829;28;20149;-63
2021/09/15 05:30:30;;;;;;;12.45;5.30;;;;;;;;;;5020573;28;20082;-63
2021/09/15 05:32:57;;;;;;;8.35;4.47;;;;;;;;;;5021732;28;20148;-63
2021/09/15 05:35:23;;;;;;;10.65;5.00;;;;;;;;;;5029165;28;20077;-63
2021/09/15 05:37:49;;;;;;;8.90;4.70;;;;;;;;;;5026827;28;20140;-63
2021/09/15 05:40:16;;;;;;;9.37;4.10;;;;;;;;;;5019695;28;20132;-63
2021/09/15 05:42:43;;;;;;;10.60;4.18;;;;;;;;;;5022654;28;20129;-63
2021/09/15 05:45:09;;;;;;;8.13;3.50;;;;;;;;;;5022287;28;20068;-63
2021/09/15 05:47:36;;;;;;;6.53;3.83;;;;;;;;;;5027768;28;20076;-63
2021/09/15 05:50:03;;;;;;;7.45;3.97;;;;;;;;;;5017811;28;20073;-64
2021/09/15 05:52:29;;;;;;;8.00;3.40;;;;;;;;;;5021010;28;20087;-63
2021/09/15 05:54:57;;;;;;;8.98;4.57;;;;;;;;;;5017704;28;20057;-63
2021/09/15 05:57:23;;;;;;;11.38;7.28;;;;;;;;;;5026527;28;20099;-63
2021/09/15 05:59:50;;;;;;;14.55;6.78;;;;;;;;;;5024765;28;20136;-63
2021/09/15 06:02:17;;;;;;;16.63;8.20;;;;;;;;;;5018677;28;20085;-63
2021/09/15 06:04:43;;;;;;;23.60;8.77;;;;;;;;;;5025393;28;20136;-63
2021/09/15 06:07:10;;;;;;;16.17;7.60;;;;;;;;;;5024652;28;20046;-63
2021/09/15 06:09:37;;;;;;;18.23;7.20;;;;;;;;;;5026111;28;20560;-63
2021/09/15 06:12:03;;;;;;;21.08;9.43;;;;;;;;;;5026816;28;20289;-63
2021/09/15 06:14:30;;;;;;;18.55;10.13;;;;;;;;;;5024011;28;20050;-63
2021/09/15 06:16:57;;;;;;;17.60;8.30;;;;;;;;;;5022795;28;20143;-63
2021/09/15 06:19:23;;;;;;;14.82;7.03;;;;;;;;;;5019040;28;20297;-63
2021/09/15 06:21:49;;;;;;;17.10;7.43;;;;;;;;;;5021743;28;20107;-63
2021/09/15 06:24:16;;;;;;;11.13;7.35;;;;;;;;;;5016714;28;20225;-63
2021/09/15 06:26:42;;;;;;;23.40;9.00;;;;;;;;;;5019617;28;20054;-63
2021/09/15 06:29:09;;;;;;;16.00;8.60;;;;;;;;;;5023947;28;20136;-63
2021/09/15 06:31:36;;;;;;;23.38;8.65;;;;;;;;;;5021646;28;20100;-63
2021/09/15 06:34:03;;;;;;;22.67;9.02;;;;;;;;;;5031150;28;20049;-63
2021/09/15 06:36:29;;;;;;;21.67;9.52;;;;;;;;;;5026628;28;20482;-63
2021/09/15 06:38:57;;;;;;;14.98;8.35;;;;;;;;;;5022158;28;20141;-63
2021/09/15 06:41:24;;;;;;;14.95;8.82;;;;;;;;;;5021413;28;20077;-63
2021/09/15 06:43:51;;;;;;;16.75;8.77;;;;;;;;;;5025425;28;20394;-63
2021/09/15 06:46:18;;;;;;;27.05;10.15;;;;;;;;;;5026105;28;20125;-63
2021/09/15 06:48:44;;;;;;;20.42;8.60;;;;;;;;;;5023344;28;20052;-63
2021/09/15 06:51:10;;;;;;;19.17;9.57;;;;;;;;;;5026456;28;20050;-63
2021/09/15 06:53:37;;;;;;;17.90;9.55;;;;;;;;;;5029390;28;20136;-63
2021/09/15 06:56:03;;;;;;;12.48;7.60;;;;;;;;;;5024577;28;20132;-63
2021/09/15 06:58:30;;;;;;;21.25;8.13;;;;;;;;;;5027396;28;20076;-63
2021/09/15 07:00:57;;;;;;;22.47;9.37;;;;;;;;;;5023593;28;20136;-63
2021/09/15 07:03:23;;;;;;;21.35;9.75;;;;;;;;;;5026341;28;20080;-63
2021/09/15 07:05:49;;;;;;;20.02;10.55;;;;;;;;;;5019169;28;20141;-63
2021/09/15 07:08:17;;;;;;;15.00;7.63;;;;;;;;;;5023729;28;20549;-63
2021/09/15 07:10:43;;;;;;;14.88;8.25;;;;;;;;;;5029004;28;20053;-63
2021/09/15 07:13:10;;;;;;;13.15;7.57;;;;;;;;;;5019076;28;20046;-63
2021/09/15 07:15:37;;;;;;;20.70;8.90;;;;;;;;;;5019539;28;20568;-63
2021/09/15 07:18:04;;;;;;;13.60;8.48;;;;;;;;;;5013973;28;20316;-63
2021/09/15 07:20:31;;;;;;;16.42;8.82;;;;;;;;;;5026175;28;20045;-63
2021/09/15 07:22:58;;;;;;;16.97;8.57;;;;;;;;;;5023630;28;20136;-63
2021/09/15 07:25:24;;;;;;;12.68;8.07;;;;;;;;;;5023316;28;20352;-63
2021/09/15 07:27:50;;;;;;;12.27;7.00;;;;;;;;;;5026968;28;20113;-63
2021/09/15 07:30:17;;;;;;;11.70;6.43;;;;;;;;;;5029234;28;20140;-63
2021/09/15 07:32:44;;;;;;;12.00;6.40;;;;;;;;;;5023794;28;20356;-63
2021/09/15 07:35:12;;;;;;;8.70;6.03;;;;;;;;;;5017879;28;20073;-63
2021/09/15 07:37:40;;;;;;;14.05;5.93;;;;;;;;;;5022760;28;20077;-63
2021/09/15 07:40:07;;;;;;;11.57;5.85;;;;;;;;;;5021917;28;20476;-63
2021/09/15 07:42:34;;;;;;;13.35;5.15;;;;;;;;;;5023382;28;20055;-63
2021/09/15 07:45:01;;;;;;;8.50;4.85;;;;;;;;;;5020334;28;20133;-63
2021/09/15 07:47:27;;;;;;;8.90;4.45;;;;;;;;;;5029977;28;20092;-63
2021/09/15 07:49:53;;;;;;;15.15;5.03;;;;;;;;;;5021139;28;20523;-63
2021/09/15 07:52:20;;;;;;;12.43;4.65;;;;;;;;;;5017858;28;20130;-63
2021/09/15 07:54:47;;;;;;;9.88;4.18;;;;;;;;;;5023403;28;20140;-63
2021/09/15 07:57:13;;;;;;;6.90;3.88;;;;;;;;;;5022388;28;20133;-63
2021/09/15 07:59:43;;;;;;;8.50;3.60;;;;;;;;;;5026128;28;20133;-63
2021/09/15 08:02:09;;;;;;;9.63;3.88;;;;;;;;;;5027312;28;20077;-63
2021/09/15 08:04:36;;;;;;;6.50;3.80;;;;;;;;;;5024275;28;20473;-63
2021/09/15 08:07:02;;;;;;;10.83;3.90;;;;;;;;;;5019329;28;20088;-63
2021/09/15 08:09:29;;;;;;;5.72;3.72;;;;;;;;;;5020835;28;20398;-63
2021/09/15 08:11:55;;;;;;;6.95;3.60;;;;;;;;;;5021755;28;20074;-63
2021/09/15 08:14:23;;;;;;;6.90;3.72;;;;;;;;;;5024095;28;20050;-63
2021/09/15 08:16:50;;;;;;;6.07;3.35;;;;;;;;;;5028473;28;20052;-63
2021/09/15 08:19:16;;;;;;;7.18;3.33;;;;;;;;;;5017843;28;20148;-63
2021/09/15 08:21:43;;;;;;;6.73;3.53;;;;;;;;;;5021384;28;20185;-63
2021/09/15 08:24:09;;;;;;;7.75;3.13;;;;;;;;;;5022975;28;20092;-63
2021/09/15 08:26:36;;;;;;;3.80;3.05;;;;;;;;;;5023996;28;20081;-63
2021/09/15 08:29:03;;;;;;;6.30;2.67;;;;;;;;;;5025361;28;20069;-63
2021/09/15 08:31:29;;;;;;;4.15;2.50;;;;;;;;;;5023395;28;20085;-63
2021/09/15 08:33:55;;;;;;;6.70;2.85;;;;;;;;;;5018568;28;20053;-63
2021/09/15 08:36:23;;;;;;;6.28;2.90;;;;;;;;;;5023893;28;20085;-63
2021/09/15 08:38:49;;;;;;;8.70;3.05;;;;;;;;;;5021480;28;20077;-63
2021/09/15 08:41:16;;;;;;;4.30;2.70;;;;;;;;;;5020497;28;20497;-63
2021/09/15 08:43:43;;;;;;;4.95;2.40;;;;;;;;;;5026031;28;20136;-63
2021/09/15 08:46:11;;;;;;;6.35;2.42;;;;;;;;;;5021942;28;20520;-63
2021/09/15 08:48:41;;;;;;;6.53;2.65;;;;;;;;;;5020762;28;20128;-63
2021/09/15 08:51:12;;;;;;;5.63;2.67;;;;;;;;;;5020700;28;20549;-63
2021/09/15 08:53:41;;;;;;;4.60;2.42;;;;;;;;;;5024983;28;20132;-63
2021/09/15 08:56:07;;;;;;;4.38;2.35;;;;;;;;;;5022592;28;20136;-63
2021/09/15 08:58:34;;;;;;;8.95;2.35;;;;;;;;;;5023834;28;20496;-63
2021/09/15 09:01:14;;;;;;;5.65;2.33;;;;;;;;;;5020131;28;20145;-63
2021/09/15 09:03:44;;;;;;;5.35;2.33;;;;;;;;;;5026337;28;20053;-63
2021/09/15 09:06:15;;;;;;;4.53;2.28;;;;;;;;;;5023544;28;20131;-63
2021/09/15 09:08:43;;;;;;;4.47;2.03;;;;;;;;;;5023476;28;20144;-63
2021/09/15 09:11:14;;;;;;;6.75;2.65;;;;;;;;;;5024842;28;20081;-63
2021/09/15 09:13:48;;;;;;;6.47;2.10;;;;;;;;;;5026520;28;20133;-63
2021/09/15 09:16:17;;;;;;;3.28;2.05;;;;;;;;;;5017276;28;20053;-63
2021/09/15 09:18:56;;;;;;;3.50;1.80;;;;;;;;;;5028210;28;20137;-62
2021/09/15 09:21:23;;;;;;;4.22;2.00;;;;;;;;;;5018805;28;20081;-63
2021/09/15 09:23:54;;;;;;;2.67;1.67;;;;;;;;;;5017821;28;20133;-63
2021/09/15 09:26:20;;;;;;;3.92;2.20;;;;;;;;;;5018512;28;20070;-63
2021/09/15 09:28:47;;;;;;;5.75;2.08;;;;;;;;;;5019128;28;20057;-63
2021/09/15 09:31:13;;;;;;;6.07;2.22;;;;;;;;;;5025439;28;20092;-63
2021/09/15 09:33:40;;;;;;;11.82;2.20;;;;;;;;;;5020342;28;20077;-63
2021/09/15 09:36:08;;;;;;;5.15;2.00;;;;;;;;;;5023940;28;20053;-63
2021/09/15 09:38:38;;;;;;;4.50;2.08;;;;;;;;;;5026648;28;20045;-63
2021/09/15 09:41:05;;;;;;;3.88;2.00;;;;;;;;;;5022371;28;20462;-63
2021/09/15 09:43:36;;;;;;;4.10;2.30;;;;;;;;;;5021432;28;20055;-63
2021/09/15 09:46:03;;;;;;;5.32;2.15;;;;;;;;;;5018916;28;20411;-63
2021/09/15 09:48:30;;;;;;;;;;;;;;;;;;5022807;28;20077;-63
2021/09/15 09:50:57;;;;;;;6.25;2.50;;;;;;;;;;5023093;28;19929;-63
2021/09/15 09:53:23;;;;;;;2.60;1.90;;;;;;;;;;5018230;28;20474;-63
2021/09/15 09:55:50;;;;;;;6.95;1.98;;;;;;;;;;5017239;28;20441;-63
2021/09/15 09:58:22;;;;;;;3.80;1.90;;;;;;;;;;5027926;28;20469;-63
2021/09/15 10:00:49;;;;;;;5.90;2.45;;;;;;;;;;5022106;28;20139;-63
2021/09/15 10:03:15;;;;;;;2.97;1.80;;;;;;;;;;5022324;28;20052;-63
2021/09/15 10:05:44;;;;;;;4.05;1.88;;;;;;;;;;5018999;28;20143;-63
2021/09/15 10:08:11;;;;;;;6.82;2.08;;;;;;;;;;5021248;28;20141;-63
2021/09/15 10:10:41;;;;;;;6.15;1.75;;;;;;;;;;5022701;28;20041;-63
2021/09/15 10:13:09;;;;;;;6.25;2.00;;;;;;;;;;5021741;28;20140;-63
2021/09/15 10:16:03;;;;;;;6.47;2.25;;;;;;;;;;5023292;28;20140;-63
2021/09/15 10:18:29;;;;;;;3.13;1.90;;;;;;;;;;5019572;28;20053;-63
2021/09/15 10:20:59;;;;;;;6.60;2.38;;;;;;;;;;5024408;28;20140;-63
2021/09/15 10:23:47;;;;;;;5.80;1.88;;;;;;;;;;5014333;28;20501;-63
2021/09/15 10:26:31;;;;;;;4.10;1.95;;;;;;;;;;5024930;28;20104;-63
2021/09/15 10:29:16;;;;;;;4.47;2.22;;;;;;;;;;5026357;28;20127;-63
2021/09/15 10:31:59;;;;;;;3.33;1.65;;;;;;;;;;5022268;28;20132;-63
2021/09/15 10:34:38;;;;;;;5.00;1.80;;;;;;;;;;5027504;28;20072;-63
2021/09/15 10:37:12;;;;;;;6.10;1.85;;;;;;;;;;5027082;28;20159;-63
2021/09/15 10:39:54;;;;;;;4.97;1.85;;;;;;;;;;5017591;28;20073;-63
2021/09/15 10:45:11;;;;;;;6.90;2.10;;;;;;;;;;5022425;28;20049;-63
2021/09/15 10:47:39;;;;;;;4.85;1.90;;;;;;;;;;5024180;28;20125;-63
2021/09/15 10:50:06;;;;;;;2.28;1.48;;;;;;;;;;5004296;28;20165;-63
2021/09/15 10:52:37;;;;;;;4.68;1.73;;;;;;;;;;5020903;28;20085;-63
2021/09/15 10:55:33;;;;;;;2.85;1.55;;;;;;;;;;5017900;28;20133;-63
2021/09/15 10:58:08;;;;;;;3.53;1.77;;;;;;;;;;5008892;28;20124;-63
2021/09/15 11:00:45;;;;;;;3.35;1.67;;;;;;;;;;5023518;28;20136;-63
2021/09/15 11:03:22;;;;;;;3.75;1.90;;;;;;;;;;5021091;28;20046;-63
2021/09/15 11:05:50;;;;;;;1.70;1.50;;;;;;;;;;5018585;28;20149;-63
2021/09/15 11:08:20;;;;;;;6.32;1.90;;;;;;;;;;5025733;28;20061;-63
2021/09/15 11:10:47;;;;;;;3.15;1.80;;;;;;;;;;5019686;28;20104;-63
2021/09/15 11:13:14;;;;;;;3.00;2.00;;;;;;;;;;5025870;28;20141;-63
2021/09/15 11:15:42;;;;;;;6.80;1.85;;;;;;;;;;5026033;28;20053;-63
2021/09/15 11:18:35;;;;;;;3.38;2.10;;;;;;;;;;5027875;28;20080;-63
2021/09/15 11:21:06;;;;;;;3.85;1.83;;;;;;;;;;5019106;28;20054;-63
2021/09/15 11:23:32;;;;;;;4.10;2.05;;;;;;;;;;5027001;28;20124;-63
2021/09/15 11:25:59;;;;;;;2.43;1.97;;;;;;;;;;5025515;28;20085;-63
2021/09/15 11:28:26;;;;;;;3.22;1.90;;;;;;;;;;5022490;28;20307;-63
2021/09/15 11:30:52;;;;;;;2.97;2.08;;;;;;;;;;5025839;28;20080;-63
2021/09/15 11:33:29;;;;;;;7.80;2.17;;;;;;;;;;5027634;28;20179;-63
2021/09/15 11:36:01;;;;;;;2.63;2.13;;;;;;;;;;5027695;28;20088;-63
2021/09/15 11:38:28;;;;;;;4.50;2.15;;;;;;;;;;5023528;28;20060;-63
2021/09/15 11:41:14;;;;;;;2.10;1.77;;;;;;;;;;5023209;28;20129;-63
2021/09/15 11:43:47;;;;;;;3.72;2.13;;;;;;;;;;5017835;28;20585;-63
2021/09/15 11:46:18;;;;;;;3.78;2.00;;;;;;;;;;5024677;28;20461;-63
2021/09/15 11:48:45;;;;;;;3.38;1.80;;;;;;;;;;5021752;28;20443;-63
2021/09/15 11:51:14;;;;;;;3.55;1.88;;;;;;;;;;5025490;28;20058;-64
2021/09/15 11:53:47;;;;;;;2.25;1.67;;;;;;;;;;5023499;28;20125;-63
2021/09/15 11:56:18;;;;;;;2.00;1.50;;;;;;;;;;5027509;28;20137;-63
2021/09/15 11:58:46;;;;;;;2.20;1.75;;;;;;;;;;5025333;28;20045;-63
2021/09/15 12:01:16;;;;;;;3.72;1.80;;;;;;;;;;5030251;28;20160;-64
2021/09/15 12:03:44;;;;;;;3.22;1.80;;;;;;;;;;5024598;28;20394;-63
2021/09/15 12:06:10;;;;;;;2.75;1.60;;;;;;;;;;5023806;28;20480;-63
2021/09/15 12:08:38;;;;;;;5.25;2.05;;;;;;;;;;5025791;28;20061;-63
2021/09/15 12:11:06;;;;;;;5.95;1.67;;;;;;;;;;5022795;28;20074;-64
2021/09/15 12:13:33;;;;;;;5.00;1.48;;;;;;;;;;5027776;28;20517;-63
2021/09/15 12:16:00;;;;;;;3.67;1.60;;;;;;;;;;5027633;28;20049;-63
2021/09/15 12:18:40;;;;;;;3.65;1.63;;;;;;;;;;5020511;28;20100;-64
2021/09/15 12:21:13;;;;;;;2.67;1.58;;;;;;;;;;5021591;28;20081;-63
2021/09/15 12:23:40;;;;;;;2.83;1.77;;;;;;;;;;5025096;28;20137;-63
2021/09/15 12:26:06;;;;;;;4.45;1.60;;;;;;;;;;5023074;28;20136;-63
2021/09/15 12:28:33;;;;;;;3.03;1.63;;;;;;;;;;5027449;28;20133;-63
2021/09/15 12:31:00;;;;;;;2.50;1.70;;;;;;;;;;5018179;28;20091;-63
2021/09/15 12:33:28;;;;;;;3.40;1.73;;;;;;;;;;5023167;28;20085;-63
2021/09/15 12:36:10;;;;;;;3.38;1.80;;;;;;;;;;5023249;28;20077;-63
2021/09/15 12:38:50;;;;;;;4.22;1.80;;;;;;;;;;5017085;28;20445;-63
2021/09/15 12:41:17;;;;;;;4.03;1.70;;;;;;;;;;5015719;28;20144;-63
2021/09/15 12:43:43;;;;;;;3.22;1.80;;;;;;;;;;5023973;28;20124;-63
2021/09/15 12:46:30;;;;;;;2.33;1.58;;;;;;;;;;5022568;28;20136;-63
2021/09/15 12:48:57;;;;;;;2.70;1.60;;;;;;;;;;5024066;28;20081;-63
2021/09/15 12:51:25;;;;;;;2.42;1.85;;;;;;;;;;5026425;28;20095;-63
2021/09/15 12:53:53;;;;;;;3.72;1.55;;;;;;;;;;5025280;28;20058;-63
2021/09/15 12:56:22;;;;;;;3.03;1.70;;;;;;;;;;5023940;28;20132;-63
2021/09/15 12:58:49;;;;;;;2.13;1.58;;;;;;;;;;5023992;28;20081;-63
2021/09/15 13:01:19;;;;;;;3.75;1.85;;;;;;;;;;5024249;28;20133;-63
2021/09/15 13:03:49;;;;;;;2.80;1.70;;;;;;;;;;5022361;28;20114;-63
2021/09/15 13:06:17;;;;;;;4.70;2.25;;;;;;;;;;5021703;28;20093;-63
2021/09/15 13:08:50;;;;;;;4.50;1.70;;;;;;;;;;5023143;28;20521;-63
2021/09/15 13:11:17;;;;;;;3.40;1.77;;;;;;;;;;5027800;28;20519;-63
2021/09/15 13:13:44;;;;;;;3.78;2.10;;;;;;;;;;5024287;28;20573;-63
2021/09/15 13:16:10;;;;;;;2.77;1.80;;;;;;;;;;5025579;28;20141;-63
2021/09/15 13:18:38;;;;;;;;;;;;;;;;;;5024728;28;20129;-63
2021/09/15 13:21:04;;;;;;;1.60;1.45;;;;;;;;;;5027160;28;20037;-63
2021/09/15 13:23:31;;;;;;;3.20;1.77;;;;;;;;;;5020059;28;20581;-63
2021/09/15 13:26:01;;;;;;;3.35;1.90;;;;;;;;;;5027526;28;20529;-63
2021/09/15 13:28:28;;;;;;;1.88;1.48;;;;;;;;;;5026904;28;20139;-64
2021/09/15 13:30:54;;;;;;;3.65;1.90;;;;;;;;;;5023361;28;20046;-63
2021/09/15 13:33:21;;;;;;;2.55;1.65;;;;;;;;;;5019823;28;20239;-63
2021/09/15 13:35:48;;;;;;;2.92;1.63;;;;;;;;;;5019742;28;20137;-64
2021/09/15 13:38:14;;;;;;;5.67;1.90;;;;;;;;;;5026161;28;20085;-63
2021/09/15 13:40:42;;;;;;;1.92;1.38;;;;;;;;;;5019233;28;20604;-63
2021/09/15 13:43:08;;;;;;;1.60;1.38;;;;;;;;;;5022567;28;20284;-64
2021/09/15 13:45:35;;;;;;;3.58;1.50;;;;;;;;;;5025917;28;20129;-63
2021/09/15 13:48:02;;;;;;;2.42;1.48;;;;;;;;;;5022502;28;20180;-63
2021/09/15 13:50:29;;;;;;;2.42;1.67;;;;;;;;;;5024589;28;20073;-63
2021/09/15 13:52:55;;;;;;;2.60;1.50;;;;;;;;;;5023596;28;20054;-64
2021/09/15 13:55:23;;;;;;;3.55;1.65;;;;;;;;;;5022959;28;20172;-63
2021/09/15 13:57:49;;;;;;;2.72;1.60;;;;;;;;;;5023621;28;20177;-63
2021/09/15 14:00:16;;;;;;;2.97;1.92;;;;;;;;;;5015875;28;20054;-64
2021/09/15 14:02:43;;;;;;;2.90;1.65;;;;;;;;;;5018315;28;20152;-63
2021/09/15 14:05:09;;;;;;;4.05;1.70;;;;;;;;;;5020433;28;20080;-63
2021/09/15 14:07:37;;;;;;;5.15;1.70;;;;;;;;;;5019123;28;20136;-64
2021/09/15 14:10:05;;;;;;;7.10;1.60;;;;;;;;;;5020946;28;20045;-63
2021/09/15 14:12:52;;;;;;;2.65;1.65;;;;;;;;;;5025873;28;20053;-63
2021/09/15 14:15:19;;;;;;;2.92;1.65;;;;;;;;;;5021579;28;20611;-64
2021/09/15 14:17:45;;;;;;;2.33;1.60;;;;;;;;;;5023716;28;20681;-64
2021/09/15 14:20:11;;;;;;;2.40;1.73;;;;;;;;;;5019985;28;20683;-63
2021/09/15 14:22:38;;;;;;;3.17;1.95;;;;;;;;;;5027544;28;20103;-63
2021/09/15 14:25:08;;;;;;;2.33;1.75;;;;;;;;;;5023323;28;20049;-64
2021/09/15 14:27:35;;;;;;;3.20;1.85;;;;;;;;;;5019762;28;20057;-64
2021/09/15 14:30:04;;;;;;;2.15;1.52;;;;;;;;;;5019824;28;20050;-64
2021/09/15 14:32:30;;;;;;;3.17;1.80;;;;;;;;;;5015858;28;20053;-64
2021/09/15 14:34:57;;;;;;;2.15;1.52;;;;;;;;;;5022388;28;20292;-63
2021/09/15 14:37:24;;;;;;;2.45;1.60;;;;;;;;;;5026485;28;20057;-64
2021/09/15 14:39:51;;;;;;;2.55;1.83;;;;;;;;;;5017554;28;20081;-64
2021/09/15 14:42:18;;;;;;;3.85;1.88;;;;;;;;;;5020310;28;20060;-64
2021/09/15 14:44:45;;;;;;;4.07;1.73;;;;;;;;;;5021141;28;20091;-64
2021/09/15 14:47:11;;;;;;;3.55;1.75;;;;;;;;;;5016005;28;20046;-64
2021/09/15 14:49:38;;;;;;;3.03;1.70;;;;;;;;;;5022025;28;20125;-64
2021/09/15 14:52:06;;;;;;;2.67;1.60;;;;;;;;;;5024365;28;20144;-64
2021/09/15 14:54:32;;;;;;;3.30;1.75;;;;;;;;;;5019634;28;20136;-64